Latest Weather Observations for Warrnambool

IDV60801

Issued at 9:22 pm EST Wednesday 5 August 2020 (issued every 10 minutes, with the page automatically refreshed every 10 minutes)

About weather observations | Map of weather stations | Latest weather observations for VIC | Other Formats
Station Details ID: 090186 Name: WARRNAMBOOL AIRPORT NDB Lat: -38.29 Lon: 142.45 Height: 70.8 m
Data from the previous 72 hours. | See also: Recent months at Warrnambool
Date/Time
EST
Temp
°C
App
Temp
°C
Dew
Point
°C
Rel
Hum
%
Delta-T
°C
Wind Press
QNH
hPa
Press
MSL
hPa
Rain since
9am
mm
Dir  Spd
km/h
Gust
km/h
Spd
kts
Gust
kts
05/09:00pm 7.1 2.6 6.8 98 0.1 SSW 20 24 11 13 1019.9 1020.0 0.8
05/08:44pm 6.8 2.8 6.5 98 0.1 SSW 17 24 9 13 1019.8 1019.9 0.8
05/08:30pm 7.4 1.9 7.4 100 0.0 SSW 26 32 14 17 1019.8 1019.9 0.8
05/08:25pm 7.5 2.7 7.5 100 0.0 SW 22 32 12 17 1019.8 1019.9 0.6
05/08:00pm 6.8 4.0 6.8 100 0.0 SW 11 15 6 8 1019.7 1019.8 0.4
05/07:30pm 6.9 5.0 6.9 100 0.0 SSW 6 9 3 5 1019.8 1019.9 0.4
05/07:00pm 7.4 4.3 7.3 99 0.0 SW 13 17 7 9 1019.6 1019.7 0.4
05/06:30pm 7.3 3.7 6.9 97 0.2 WSW 15 20 8 11 1019.3 1019.4 0.2
05/06:00pm 6.9 3.6 6.2 95 0.3 SW 13 17 7 9 1019.1 1019.2 0.2
05/05:30pm 8.0 3.5 7.1 94 0.4 SSW 20 30 11 16 1018.9 1019.0 0.2
05/05:00pm 8.1 4.9 6.7 91 0.6 S 13 19 7 10 1018.7 1018.8 0.2
05/04:30pm 9.0 4.2 5.6 79 1.5 SW 20 28 11 15 1018.6 1018.7 0.2
05/04:00pm 10.6 4.9 4.9 68 2.6 SSW 24 32 13 17 1018.3 1018.4 0.2
05/03:30pm 10.4 4.1 3.7 63 3.0 SW 26 32 14 17 1018.2 1018.3 0.2
05/03:00pm 10.7 5.2 6.1 73 2.1 SSW 24 33 13 18 1018.1 1018.2 0.2
05/02:30pm 10.6 4.6 5.4 70 2.4 SW 26 39 14 21 1018.0 1018.1 0.2
05/02:00pm 10.2 3.3 4.8 69 2.4 SW 30 39 16 21 1018.2 1018.3 0.2
05/01:36pm 9.7 3.5 6.2 79 1.6 SW 28 46 15 25 1018.4 1018.5 0.2
05/01:30pm 10.0 5.0 6.3 78 1.7 SSW 22 28 12 15 1018.3 1018.4 0.2
05/01:00pm 8.8 3.9 6.8 87 0.9 SW 22 33 12 18 1018.9 1019.0 0.2
05/12:52pm 8.5 1.5 6.0 84 1.1 SSW 32 46 17 25 1019.0 1019.1 0.2
05/12:43pm 9.1 2.7 5.3 77 1.7 SSW 28 46 15 25 1019.1 1019.2 0.0
05/12:30pm 9.7 3.6 4.9 72 2.2 SW 26 33 14 18 1019.2 1019.3 0.0
05/12:00pm 9.1 1.8 4.5 73 2.0 SW 32 41 17 22 1019.5 1019.6 0.0
05/11:38am 8.4 2.0 5.0 79 1.5 SW 28 46 15 25 1019.6 1019.7 0.0
05/11:30am 9.4 2.1 4.6 72 2.1 SW 32 46 17 25 1019.6 1019.7 0.0
05/11:00am 10.5 4.1 5.1 69 2.5 SSW 28 37 15 20 1019.4 1019.5 0.0
05/10:30am 9.3 4.4 4.3 71 2.2 WSW 19 26 10 14 1019.4 1019.5 0.0
05/10:00am 9.3 2.2 5.3 76 1.8 SW 32 41 17 22 1019.4 1019.5 0.0
05/09:30am 9.4 2.7 3.8 68 2.5 SW 28 37 15 20 1019.2 1019.3 0.0
05/09:00am 9.0 3.6 4.4 73 2.0 WSW 22 30 12 16 1019.1 1019.2 3.4
05/08:30am 8.1 2.2 3.9 75 1.8 SSW 24 32 13 17 1019.0 1019.1 3.4
05/08:00am 7.2 0.5 3.6 78 1.5 SW 28 35 15 19 1018.7 1018.8 3.4
05/07:30am 6.4 1.4 3.6 82 1.2 SW 19 22 10 12 1018.5 1018.6 3.4
05/07:00am 6.9 1.1 2.2 72 1.9 SW 22 30 12 16 1018.3 1018.4 3.4
05/06:30am 6.7 1.4 3.0 77 1.6 SW 20 28 11 15 1018.1 1018.2 3.4
05/06:00am 6.6 3.0 4.9 89 0.7 S 13 17 7 9 1018.0 1018.1 3.4
05/05:30am 6.8 1.8 4.6 86 1.0 S 20 30 11 16 1017.8 1017.9 3.4
05/05:00am 7.3 0.8 4.8 84 1.1 SSW 28 35 15 19 1017.8 1017.9 3.4
05/04:49am 7.4 0.9 4.7 83 1.2 SSW 28 39 15 21 1017.7 1017.8 3.4
05/04:30am 6.7 2.3 4.5 86 1.0 SSW 17 20 9 11 1017.6 1017.7 3.4
05/04:20am 7.0 0.4 4.3 83 1.2 S 28 46 15 25 1017.6 1017.7 3.4
05/04:00am 7.3 1.6 2.8 73 1.9 SSW 22 30 12 16 1017.6 1017.7 3.2
05/03:30am 8.0 1.7 3.5 73 1.9 SSW 26 33 14 18 1017.7 1017.8 3.2
05/03:00am 7.9 1.0 2.6 69 2.2 SSW 28 35 15 19 1017.8 1017.9 3.2
05/02:30am 7.7 1.5 4.3 79 1.5 SSW 26 35 14 19 1017.8 1017.9 3.2
05/02:00am 8.0 1.5 4.8 80 1.4 SSW 28 35 15 19 1018.1 1018.2 3.2
05/01:30am 8.0 0.7 4.4 78 1.6 SSW 32 41 17 22 1017.9 1018.0 3.2
05/01:00am 7.5 0.2 4.6 82 1.3 SSW 32 41 17 22 1018.0 1018.1 3.2
05/12:30am 7.5 1.1 5.1 85 1.1 SSW 28 41 15 22 1018.1 1018.2 3.2
05/12:01am 7.9 0.9 5.9 87 0.9 SSW 32 50 17 27 1018.2 1018.3 3.0
05/12:00am 7.5 0.4 5.5 87 0.9 SSW 32 46 17 25 1018.2 1018.3 3.0
 
Date/Time
EST
Temp
°C
App
Temp
°C
Dew
Point
°C
Rel
Hum
%
Delta-T
°C
Wind Press
QNH
hPa
Press
MSL
hPa
Rain since
9am
mm
Dir  Spd
km/h
Gust
km/h
Spd
kts
Gust
kts
04/11:30pm 6.7 -0.1 4.9 88 0.8 SSW 30 37 16 20 1018.2 1018.3 3.0
04/11:17pm 7.6 0.9 5.4 86 1.0 SSW 30 54 16 29 1018.2 1018.3 3.0
04/11:00pm 7.2 -1.1 4.0 80 1.4 SSW 37 52 20 28 1018.2 1018.3 3.0
04/10:51pm 8.0 0.6 3.8 75 1.8 SSW 32 52 17 28 1018.2 1018.3 3.0
04/10:30pm 7.4 0.6 2.9 73 1.9 SSW 28 35 15 19 1018.2 1018.3 3.0
04/10:00pm 7.7 -0.4 3.4 74 1.8 SSW 35 46 19 25 1018.1 1018.2 3.0
04/09:30pm 7.6 0.8 2.9 72 2.0 SSW 28 39 15 21 1018.0 1018.1 3.0
04/09:00pm 7.5 0.4 3.6 76 1.7 SSW 30 39 16 21 1017.9 1018.0 3.0
04/08:30pm 8.1 0.1 3.8 74 1.9 SSW 35 46 19 25 1017.8 1017.9 3.0
04/08:08pm 8.0 0.3 3.5 73 1.9 S 33 52 18 28 1017.6 1017.7 3.0
04/08:00pm 8.1 0.3 3.0 70 2.2 S 33 44 18 24 1017.5 1017.6 3.0
04/07:30pm 8.2 1.3 4.6 78 1.6 S 30 39 16 21 1017.2 1017.3 3.0
04/07:00pm 7.1 -2.9 4.4 83 1.2 SSW 46 74 25 40 1016.8 1016.9 3.0
04/06:53pm 8.2 -1.9 4.0 75 1.8 SSW 46 74 25 40 1016.7 1016.8 2.8
04/06:32pm 8.4 1.6 5.2 80 1.4 SW 30 50 16 27 1016.4 1016.5 2.8
04/06:30pm 7.9 1.9 5.4 84 1.1 SW 26 41 14 22 1016.4 1016.5 2.8
04/06:00pm 6.8 -2.8 3.4 79 1.4 SW 43 56 23 30 1016.2 1016.3 2.8
04/05:49pm 7.4 -0.4 5.0 85 1.1 SW 35 56 19 30 1016.4 1016.5 2.8
04/05:30pm 6.8 0.1 5.4 91 0.6 SSW 30 37 16 20 1016.3 1016.4 2.8
04/05:05pm 9.1 0.5 4.5 73 2.0 SW 39 57 21 31 1015.9 1016.0 2.6
04/05:00pm 9.0 0.8 4.8 75 1.9 SW 37 54 20 29 1015.8 1015.9 2.6
04/04:30pm 9.2 3.7 6.1 81 1.4 SW 24 43 13 23 1015.5 1015.6 2.6
04/04:00pm 8.1 0.8 5.4 83 1.2 SW 33 52 18 28 1015.8 1015.9 2.6
04/03:59pm 8.6 1.5 5.5 81 1.4 SW 32 52 17 28 1015.8 1015.9 2.6
04/03:30pm 7.8 0.3 6.4 91 0.6 S 35 43 19 23 1015.6 1015.7 2.6
04/03:23pm 7.9 1.1 6.8 93 0.5 SSW 32 41 17 22 1015.7 1015.8 2.6
04/03:04pm 7.0 -0.3 5.5 90 0.7 SSW 33 54 18 29 1015.8 1015.9 2.6
04/03:02pm 8.6 1.6 6.2 85 1.1 SSW 32 54 17 29 1015.8 1015.9 2.0
04/03:00pm 9.6 2.9 7.2 85 1.1 SSW 32 44 17 24 1015.6 1015.7 2.0
04/02:31pm 9.5 0.2 5.7 77 1.7 SSW 44 70 24 38 1015.1 1015.2 2.0
04/02:30pm 9.7 0.6 5.9 77 1.8 SSW 43 59 23 32 1015.1 1015.2 2.0
04/02:26pm 9.6 1.3 6.1 79 1.6 SSW 39 50 21 27 1015.1 1015.2 2.0
04/02:09pm 7.0 -1.4 5.8 92 0.5 SSW 39 69 21 37 1015.2 1015.3 1.8
04/02:06pm 7.5 -0.7 5.0 84 1.1 SSW 37 69 20 37 1015.2 1015.3 1.4
04/02:00pm 8.9 2.5 6.9 87 0.9 SSW 30 43 16 23 1014.9 1015.0 1.2
04/01:33pm 10.3 1.0 5.9 74 2.0 SW 44 67 24 36 1015.0 1015.1 1.0
04/01:30pm 10.0 0.7 5.0 71 2.3 SSW 43 54 23 29 1015.0 1015.1 1.0
04/01:00pm 9.8 0.8 6.3 79 1.6 SSW 43 65 23 35 1014.9 1015.0 1.0
04/12:30pm 8.2 -0.4 6.5 89 0.8 SSW 41 56 22 30 1015.1 1015.2 1.0
04/12:04pm 7.9 -2.7 5.2 83 1.2 SSW 50 69 27 37 1015.4 1015.5 0.8
04/12:00pm 7.5 -3.6 4.3 80 1.4 SSW 52 69 28 37 1015.6 1015.7 0.8
04/11:37am 9.3 0.2 6.0 80 1.5 SSW 43 63 23 34 1015.3 1015.4 0.6
04/11:30am 9.2 0.5 6.1 81 1.4 SSW 41 56 22 30 1015.3 1015.4 0.6
04/11:00am 7.5 -0.8 6.1 91 0.6 SW 39 63 21 34 1015.3 1015.4 0.6
04/10:43am 9.2 1.7 6.3 82 1.3 SSW 35 57 19 31 1015.1 1015.2 0.6
04/10:30am 8.5 1.0 6.3 86 1.0 SSW 35 48 19 26 1015.2 1015.3 0.6
04/10:00am 6.7 -0.9 6.0 95 0.3 SSW 35 46 19 25 1014.9 1015.0 0.6
04/09:30am 5.7 -1.8 4.5 92 0.5 WSW 33 54 18 29 1014.8 1014.9 0.4
04/09:28am 5.8 -1.7 4.6 92 0.5 WSW 33 54 18 29 1014.7 1014.8 0.4
04/09:14am 6.3 -2.4 4.3 87 0.9 WSW 39 54 21 29 1014.5 1014.6 0.0
04/09:01am 7.6 -1.2 3.5 75 1.8 SW 39 57 21 31 1014.2 1014.2 0.0
04/09:00am 7.9 -0.9 3.6 74 1.8 SW 39 54 21 29 1014.2 1014.2 9.2
04/08:30am 7.6 -1.2 3.5 75 1.8 SW 39 50 21 27 1013.8 1013.8 9.2
04/08:00am 7.0 -1.1 3.1 76 1.6 SW 35 46 19 25 1013.4 1013.4 9.2
04/07:42am 6.1 -2.4 3.1 81 1.3 SW 37 56 20 30 1013.3 1013.3 9.2
04/07:38am 5.7 -2.4 3.4 85 1.0 SW 35 50 19 27 1013.4 1013.4 9.2
04/07:30am 5.2 -3.2 3.9 91 0.5 SW 37 50 20 27 1013.3 1013.3 9.2
04/07:20am 4.5 -4.0 3.2 91 0.5 WSW 37 61 20 33 1013.2 1013.2 9.0
04/07:19am 4.6 -3.5 3.3 91 0.5 WSW 35 61 19 33 1013.1 1013.1 9.0
04/07:17am 5.9 -1.4 4.7 92 0.5 WSW 32 54 17 29 1013.2 1013.2 8.2
04/07:00am 5.5 -1.6 3.8 89 0.7 W 30 41 16 22 1012.7 1012.8 8.0
04/06:30am 5.5 -5.0 1.4 75 1.6 WSW 46 80 25 43 1012.5 1012.6 8.0
04/06:28am 5.4 -5.9 1.3 75 1.6 SW 50 85 27 46 1012.6 1012.7 8.0
04/06:17am 5.4 -6.5 2.4 81 1.2 SW 54 80 29 43 1013.0 1013.0 8.0
04/06:12am 5.4 -2.3 3.3 86 0.9 WSW 33 74 18 40 1013.0 1013.0 8.0
04/06:09am 4.6 -0.9 3.9 95 0.3 W 22 59 12 32 1013.1 1013.1 8.0
04/06:00am 4.1 -0.5 3.7 97 0.2 W 17 26 9 14 1013.3 1013.3 8.0
04/05:54am 3.7 -1.4 3.0 95 0.3 WNW 19 30 10 16 1012.7 1012.8 7.8
04/05:35am 3.8 -1.6 2.5 91 0.5 WNW 20 54 11 29 1013.2 1013.2 7.4
04/05:30am 3.7 -1.1 2.4 91 0.5 NW 17 26 9 14 1012.7 1012.8 7.0
04/05:29am 3.5 -1.7 2.2 91 0.5 NW 19 26 10 14 1012.6 1012.7 7.0
04/05:16am 3.6 -2.2 2.1 90 0.6 WNW 22 32 12 17 1013.1 1013.1 7.0
04/05:00am 2.7 -2.8 0.4 85 0.9 NW 19 26 10 14 1012.9 1012.9 6.4
04/04:30am 3.9 -1.8 0.6 79 1.3 W 20 32 11 17 1013.2 1013.2 6.4
04/04:00am 4.5 -4.1 0.1 73 1.7 SW 35 50 19 27 1013.5 1013.5 6.4
04/03:55am 4.3 -4.4 1.7 83 1.0 WSW 37 54 20 29 1013.7 1013.7 6.4
04/03:47am 4.7 -1.8 2.4 85 0.9 W 26 54 14 29 1013.7 1013.7 6.4
04/03:30am 3.1 -0.7 1.9 92 0.5 WNW 11 15 6 8 1013.6 1013.6 6.4
04/03:00am 3.6 -4.7 2.0 89 0.6 SW 35 50 19 27 1013.7 1013.7 6.4
04/02:54am 3.7 -6.7 1.9 88 0.7 SW 46 65 25 35 1013.8 1013.8 6.4
04/02:45am 4.5 -4.9 2.2 85 0.9 WSW 41 65 22 35 1013.9 1013.9 6.2
04/02:38am 5.7 -1.3 1.8 76 1.6 WSW 28 46 15 25 1013.7 1013.7 6.2
04/02:30am 4.9 -0.6 1.7 80 1.3 W 20 26 11 14 1013.4 1013.4 6.2
04/02:00am 4.4 -1.0 2.6 88 0.7 W 20 28 11 15 1013.8 1013.8 6.2
04/01:30am 4.5 -2.2 3.5 93 0.4 WSW 28 46 15 25 1013.9 1013.9 6.2
04/01:13am 5.2 -0.7 3.9 91 0.5 W 24 56 13 30 1014.0 1014.0 6.0
04/01:00am 5.4 0.5 4.1 91 0.6 W 19 26 10 14 1013.7 1013.7 6.0
04/12:38am 5.6 -1.0 4.4 92 0.5 WSW 28 50 15 27 1014.0 1014.0 5.8
04/12:30am 5.7 -0.4 4.8 94 0.4 WSW 26 35 14 19 1013.8 1013.8 5.8
04/12:00am 6.0 -0.4 5.1 94 0.4 WSW 28 37 15 20 1013.5 1013.5 5.4
 
Date/Time
EST
Temp
°C
App
Temp
°C
Dew
Point
°C
Rel
Hum
%
Delta-T
°C
Wind Press
QNH
hPa
Press
MSL
hPa
Rain since
9am
mm
Dir  Spd
km/h
Gust
km/h
Spd
kts
Gust
kts
03/11:33pm 6.1 -0.1 6.1 100 0.0 WSW 28 41 15 22 1013.5 1013.5 5.0
03/11:30pm 5.9 0.0 5.9 100 0.0 WSW 26 33 14 18 1013.6 1013.6 5.0
03/11:20pm 5.7 0.2 5.7 100 0.0 WSW 24 32 13 17 1013.5 1013.5 4.8
03/11:00pm 5.7 1.1 5.7 100 0.0 W 19 24 10 13 1013.6 1013.6 3.6
03/10:49pm 5.7 0.9 5.7 100 0.0 WNW 20 28 11 15 1013.4 1013.4 3.2
03/10:47pm 5.7 0.9 5.7 100 0.0 WNW 20 26 11 14 1013.4 1013.4 3.0
03/10:35pm 5.8 1.0 5.5 98 0.1 W 20 28 11 15 1013.5 1013.5 2.4
03/10:30pm 5.9 0.7 5.5 97 0.2 W 22 28 12 15 1013.5 1013.5 2.0
03/10:00pm 5.9 0.5 4.5 91 0.6 NW 22 30 12 16 1012.9 1012.9 1.2
03/09:30pm 6.7 2.2 4.4 85 1.0 WNW 17 33 9 18 1013.0 1013.0 1.0
03/09:00pm 5.6 0.0 3.6 87 0.8 NW 22 28 12 15 1012.9 1012.9 1.0
03/08:30pm 5.7 -0.2 3.7 87 0.8 NNW 24 32 13 17 1013.0 1013.0 1.0
03/08:00pm 5.5 -0.1 3.7 88 0.8 NNW 22 28 12 15 1013.0 1013.0 1.0
03/07:30pm 5.7 0.6 3.9 88 0.8 NW 20 26 11 14 1013.2 1013.2 1.0
03/07:00pm 5.6 0.1 3.9 89 0.7 NNW 22 28 12 15 1013.2 1013.2 1.0
03/06:30pm 5.7 0.7 3.4 85 1.0 NW 19 22 10 12 1013.6 1013.6 1.0
03/06:00pm 6.9 1.8 3.9 81 1.3 NW 20 26 11 14 1013.7 1013.7 1.0
03/05:30pm 8.2 2.4 4.2 76 1.7 WNW 24 33 13 18 1013.7 1013.7 1.0
03/05:00pm 9.2 4.2 4.4 72 2.1 WNW 20 28 11 15 1013.8 1013.8 1.0
03/04:30pm 9.4 4.2 5.6 77 1.7 W 22 32 12 17 1013.9 1013.9 1.0
03/04:00pm 9.5 2.7 5.3 75 1.9 W 30 39 16 21 1014.1 1014.1 1.0
03/03:30pm 10.1 3.2 6.4 78 1.7 W 32 44 17 24 1014.3 1014.3 1.0
03/03:00pm 10.1 4.0 6.4 78 1.7 W 28 37 15 20 1014.3 1014.3 1.0
03/02:30pm 10.1 3.5 7.9 86 1.1 WSW 32 44 17 24 1014.4 1014.4 1.0
03/02:00pm 10.2 4.8 8.0 86 1.1 WSW 26 37 14 20 1014.4 1014.4 1.0
03/01:30pm 10.6 6.8 9.2 91 0.7 W 19 30 10 16 1014.6 1014.7 1.0
03/01:00pm 10.6 6.4 9.7 94 0.5 W 22 30 12 16 1014.9 1015.0 1.0
03/12:30pm 9.6 5.0 9.5 99 0.0 W 24 30 13 16 1015.5 1015.6 1.0
03/12:27pm 9.6 5.3 9.5 99 0.0 W 22 30 12 16 1015.5 1015.6 1.0
03/12:09pm 9.7 4.1 8.6 93 0.5 W 28 37 15 20 1016.0 1016.1 0.4
03/12:00pm 12.0 7.6 8.8 81 1.6 WNW 22 30 12 16 1015.8 1015.9 0.0
03/11:30am 11.6 7.2 8.8 83 1.4 WNW 22 33 12 18 1016.2 1016.3 0.0
03/11:00am 11.1 7.4 9.5 90 0.8 WNW 19 26 10 14 1016.6 1016.7 0.0
03/10:30am 10.9 7.3 10.0 94 0.5 WNW 19 28 10 15 1016.9 1017.0 0.0
03/10:00am 10.0 6.3 10.0 100 0.0 NW 20 28 11 15 1016.9 1017.0 0.0
03/09:30am 9.2 5.4 9.2 100 0.0 NW 19 28 10 15 1017.2 1017.3 0.0
03/09:00am 8.2 4.2 8.2 100 0.0 NW 19 26 10 14 1017.3 1017.4 0.0
03/08:30am 7.3 3.1 7.3 100 0.0 NW 19 26 10 14 1017.4 1017.5 0.0
03/08:00am 7.3 3.4 7.3 100 0.0 NW 17 22 9 12 1017.5 1017.6 0.0
03/07:30am 7.0 1.7 6.6 97 0.2 NW 24 28 13 15 1017.4 1017.5 0.0
03/07:00am 7.2 2.6 6.3 94 0.4 NNW 20 28 11 15 1017.4 1017.5 0.0
03/06:30am 7.7 3.1 6.5 92 0.6 NW 20 26 11 14 1017.4 1017.5 0.0
03/06:00am 7.4 3.2 5.9 90 0.7 NNW 17 20 9 11 1017.2 1017.3 0.0
03/05:30am 7.6 3.2 6.4 92 0.5 NW 19 22 10 12 1017.3 1017.4 0.0
03/05:00am 7.1 3.1 6.8 98 0.1 NNW 17 24 9 13 1017.3 1017.4 0.0
03/04:30am 6.3 2.2 6.3 100 0.0 NNW 17 19 9 10 1017.8 1017.9 0.0
03/04:00am 6.2 2.1 6.2 100 0.0 NW 17 20 9 11 1017.9 1018.0 0.0
03/03:30am 6.3 3.0 6.2 99 0.0 NW 13 17 7 9 1018.3 1018.4 0.0
03/03:00am 7.2 4.1 7.1 99 0.0 NW 13 17 7 9 1018.4 1018.5 0.0
03/02:30am 7.4 4.2 6.8 96 0.3 NW 13 17 7 9 1018.6 1018.7 0.0
03/02:00am 8.7 6.2 8.1 96 0.3 NW 11 17 6 9 1018.8 1018.9 0.0
03/01:30am 8.8 5.9 8.2 96 0.3 NNW 13 15 7 8 1018.8 1018.9 0.0
03/01:00am 9.1 6.3 8.5 96 0.3 NW 13 17 7 9 1019.4 1019.5 0.0
03/12:30am 9.0 6.6 8.7 98 0.1 NW 11 13 6 7 1019.6 1019.7 0.0
03/12:00am 9.1 6.7 8.8 98 0.1 NW 11 15 6 8 1019.9 1020.0 0.0
 
Date/Time
EST
Temp
°C
App
Temp
°C
Dew
Point
°C
Rel
Hum
%
Delta-T
°C
Wind Press
QNH
hPa
Press
MSL
hPa
Rain since
9am
mm
Dir  Spd
km/h
Gust
km/h
Spd
kts
Gust
kts
02/11:30pm 9.4 7.1 9.1 98 0.1 NW 11 13 6 7 1020.2 1020.3 0.0
02/11:00pm 9.5 7.2 9.0 97 0.2 NW 11 13 6 7 1020.4 1020.5 0.0
02/10:30pm 9.4 7.0 8.8 96 0.3 NW 11 13 6 7 1020.5 1020.6 0.0
02/10:00pm 9.5 7.6 9.0 97 0.2 NW 9 13 5 7 1020.8 1020.9 0.0
02/09:30pm 9.4 7.4 8.8 96 0.3 WNW 9 11 5 6 1021.0 1021.1 0.0

Other formats

Comma delimited format used in spreadsheet applications
http://www.bom.gov.au/fwo/IDV60801/IDV60801.94837.axf

JavaScript Object Notation format (JSON) in row-major order
http://www.bom.gov.au/fwo/IDV60801/IDV60801.94837.json

Data quality

Most of these data are generated automatically and are frequently updated. Quality checks on data are not normally performed. It is possible for incorrect values to appear. Refer to information at About Latest Weather Observations and please check the disclaimer before using these data.